Time;durP1;ratioP1;P1;durP2;ratioP2;P2;SDS_P1;SDS_P2;PMS_P1;PMS_P2;Temp;Humidity;BMP_temperature;BMP_pressure;BME280_temperature;BME280_humidity;BME280_pressure;Samples;Min_cycle;Max_cycle;Signal;HPM_P1;HPM_P2
2022/06/14 00:02:59;;;;;;;5.03;1.77;;;;;;;;;;5053215;28;20435;-57
2022/06/14 00:05:26;;;;;;;1.23;1.13;;;;;;;;;;5053348;28;20419;-56
2022/06/14 00:07:53;;;;;;;1.37;1.17;;;;;;;;;;5053186;28;20419;-57
2022/06/14 00:10:20;;;;;;;1.40;1.30;;;;;;;;;;5053253;28;20423;-58
2022/06/14 00:12:48;;;;;;;1.93;1.57;;;;;;;;;;5053154;28;20418;-57
2022/06/14 00:15:15;;;;;;;2.67;1.30;;;;;;;;;;5053026;28;20470;-57
2022/06/14 00:17:43;;;;;;;1.87;1.40;;;;;;;;;;5051926;28;20459;-57
2022/06/14 00:20:11;;;;;;;1.57;1.40;;;;;;;;;;5053110;28;20797;-57
2022/06/14 00:22:38;;;;;;;2.53;1.30;;;;;;;;;;5053084;28;20526;-57
2022/06/14 00:25:06;;;;;;;3.37;2.00;;;;;;;;;;5052968;28;20454;-57
2022/06/14 00:27:33;;;;;;;5.07;1.80;;;;;;;;;;5052927;28;20539;-57
2022/06/14 00:30:01;;;;;;;2.33;1.20;;;;;;;;;;5052773;28;20448;-58
2022/06/14 00:32:28;;;;;;;2.30;1.30;;;;;;;;;;5052848;28;21002;-57
2022/06/14 00:34:55;;;;;;;6.90;2.30;;;;;;;;;;5052878;28;20449;-56
2022/06/14 00:37:22;;;;;;;4.33;1.50;;;;;;;;;;5052784;28;20490;-57
2022/06/14 00:39:49;;;;;;;2.57;1.57;;;;;;;;;;5052870;28;20452;-58
2022/06/14 00:42:18;;;;;;;3.23;1.30;;;;;;;;;;5052713;28;20862;-57
2022/06/14 00:45:00;;;;;;;3.03;1.50;;;;;;;;;;5052631;28;20455;-57
2022/06/14 00:47:29;;;;;;;1.43;1.30;;;;;;;;;;5052767;28;20448;-57
2022/06/14 00:49:57;;;;;;;4.00;1.90;;;;;;;;;;5052762;28;20814;-57
2022/06/14 00:52:26;;;;;;;4.33;1.37;;;;;;;;;;5052654;28;20445;-58
2022/06/14 00:54:55;;;;;;;3.70;1.10;;;;;;;;;;5052679;28;20419;-57
2022/06/14 00:57:23;;;;;;;3.80;1.50;;;;;;;;;;5052407;28;20465;-57
2022/06/14 00:59:53;;;;;;;3.23;1.30;;;;;;;;;;5052731;28;20441;-57
2022/06/14 01:02:22;;;;;;;2.37;1.40;;;;;;;;;;5052710;28;20419;-56
2022/06/14 01:04:50;;;;;;;5.10;1.40;;;;;;;;;;5052602;28;20434;-57
2022/06/14 01:07:18;;;;;;;2.50;1.47;;;;;;;;;;5052602;28;20517;-57
2022/06/14 01:09:47;;;;;;;3.63;1.70;;;;;;;;;;5052341;28;20969;-57
2022/06/14 01:12:16;;;;;;;4.10;1.70;;;;;;;;;;5052614;28;20454;-58
2022/06/14 01:14:45;;;;;;;3.20;1.43;;;;;;;;;;5052579;28;20444;-57
2022/06/14 01:17:13;;;;;;;2.20;1.47;;;;;;;;;;5052445;28;20844;-55
2022/06/14 01:19:40;;;;;;;1.50;1.10;;;;;;;;;;5052395;28;20522;-55
2022/06/14 01:22:22;;;;;;;3.90;1.67;;;;;;;;;;5052285;28;20455;-55
2022/06/14 01:24:49;;;;;;;3.00;1.40;;;;;;;;;;5052592;28;20448;-57
2022/06/14 01:27:18;;;;;;;3.63;1.63;;;;;;;;;;5052373;28;20756;-57
2022/06/14 01:29:47;;;;;;;5.17;1.93;;;;;;;;;;5055025;28;20443;-57
2022/06/14 01:32:15;;;;;;;4.23;1.60;;;;;;;;;;5055962;28;20978;-56
2022/06/14 01:34:44;;;;;;;2.90;1.60;;;;;;;;;;5055930;28;20790;-58
2022/06/14 01:37:13;;;;;;;4.10;1.47;;;;;;;;;;5055895;28;20971;-55
2022/06/14 01:39:41;;;;;;;2.47;1.63;;;;;;;;;;5055975;28;20427;-59
2022/06/14 01:42:13;;;;;;;3.67;1.70;;;;;;;;;;5055849;28;20463;-55
2022/06/14 01:44:43;;;;;;;2.53;1.60;;;;;;;;;;5055593;28;20555;-56
2022/06/14 01:47:16;;;;;;;1.97;1.30;;;;;;;;;;5055666;28;20539;-57
2022/06/14 01:52:36;;;;;;;3.20;1.50;;;;;;;;;;5034573;28;20441;-58
2022/06/14 01:55:11;;;;;;;4.30;1.40;;;;;;;;;;5055978;28;20452;-58
2022/06/14 01:57:40;;;;;;;2.00;1.47;;;;;;;;;;5055591;28;20838;-55
2022/06/14 02:00:09;;;;;;;2.50;1.70;;;;;;;;;;5055669;28;20456;-56
2022/06/14 02:02:40;;;;;;;5.20;2.00;;;;;;;;;;5055479;28;20546;-56
2022/06/14 02:05:09;;;;;;;6.83;2.00;;;;;;;;;;5055495;28;20778;-55
2022/06/14 02:07:38;;;;;;;2.67;1.67;;;;;;;;;;5055342;28;20460;-56
2022/06/14 02:10:11;;;;;;;6.30;1.43;;;;;;;;;;5055182;28;20423;-57
2022/06/14 02:12:49;;;;;;;5.60;1.60;;;;;;;;;;5055393;28;20456;-58
2022/06/14 02:15:20;;;;;;;2.80;1.20;;;;;;;;;;5055042;28;20429;-56
2022/06/14 02:17:50;;;;;;;6.07;1.60;;;;;;;;;;5055048;28;20484;-58
2022/06/14 02:20:20;;;;;;;2.63;1.63;;;;;;;;;;5055408;28;20448;-58
2022/06/14 02:22:48;;;;;;;3.20;1.40;;;;;;;;;;5054952;28;20577;-57
2022/06/14 02:25:19;;;;;;;8.53;2.30;;;;;;;;;;5055123;28;20425;-56
2022/06/14 02:27:49;;;;;;;1.63;1.07;;;;;;;;;;5055063;28;20463;-57
2022/06/14 02:30:18;;;;;;;3.37;1.50;;;;;;;;;;5054919;28;20450;-57
2022/06/14 02:32:47;;;;;;;5.10;1.40;;;;;;;;;;5054885;28;20476;-57
2022/06/14 02:35:16;;;;;;;4.33;1.50;;;;;;;;;;5054673;28;20429;-57
2022/06/14 02:37:45;;;;;;;3.13;1.60;;;;;;;;;;5054791;28;20484;-56
2022/06/14 02:40:18;;;;;;;2.60;1.23;;;;;;;;;;5053816;28;20430;-57
2022/06/14 02:42:50;;;;;;;4.80;1.50;;;;;;;;;;5054612;28;20476;-57
2022/06/14 02:45:20;;;;;;;3.80;1.70;;;;;;;;;;5054542;28;20423;-56
2022/06/14 02:47:50;;;;;;;3.73;1.43;;;;;;;;;;5054465;28;20445;-57
2022/06/14 02:50:20;;;;;;;3.43;1.50;;;;;;;;;;5054665;28;20445;-56
2022/06/14 02:52:50;;;;;;;4.23;1.27;;;;;;;;;;5054592;28;20541;-57
2022/06/14 02:55:19;;;;;;;2.30;1.30;;;;;;;;;;5054582;28;20459;-57
2022/06/14 02:57:49;;;;;;;4.30;1.60;;;;;;;;;;5054267;28;20862;-56
2022/06/14 03:00:18;;;;;;;7.53;1.43;;;;;;;;;;5054255;28;20419;-55
2022/06/14 03:02:46;;;;;;;3.33;1.40;;;;;;;;;;5054383;28;20782;-54
2022/06/14 03:05:17;;;;;;;2.10;1.53;;;;;;;;;;5054301;28;20444;-58
2022/06/14 03:07:48;;;;;;;1.80;1.30;;;;;;;;;;5054169;28;20452;-57
2022/06/14 03:10:15;;;;;;;8.10;1.70;;;;;;;;;;5054034;28;20448;-58
2022/06/14 03:12:45;;;;;;;1.77;1.60;;;;;;;;;;5053995;28;20455;-57
2022/06/14 03:15:18;;;;;;;5.20;1.80;;;;;;;;;;5054218;28;20837;-57
2022/06/14 03:17:52;;;;;;;4.03;1.77;;;;;;;;;;5054009;28;20483;-57
2022/06/14 03:20:24;;;;;;;4.77;1.70;;;;;;;;;;5053992;28;20448;-57
2022/06/14 03:22:53;;;;;;;3.63;1.47;;;;;;;;;;5053885;28;20470;-56
2022/06/14 03:25:23;;;;;;;6.90;2.00;;;;;;;;;;5053755;28;20544;-58
2022/06/14 03:27:52;;;;;;;1.60;1.30;;;;;;;;;;5053934;28;20448;-56
2022/06/14 03:30:22;;;;;;;2.10;1.90;;;;;;;;;;5053818;28;20451;-58
2022/06/14 03:32:54;;;;;;;4.87;1.40;;;;;;;;;;5053817;28;20495;-54
2022/06/14 03:35:25;;;;;;;4.07;1.47;;;;;;;;;;5053666;28;20970;-57
2022/06/14 03:37:52;;;;;;;3.40;1.97;;;;;;;;;;5053467;28;20487;-57
2022/06/14 03:40:21;;;;;;;3.73;1.33;;;;;;;;;;5053730;28;20449;-55
2022/06/14 03:42:48;;;;;;;8.77;1.90;;;;;;;;;;5053642;28;20483;-57
2022/06/14 03:45:17;;;;;;;4.03;1.63;;;;;;;;;;5053582;28;20803;-58
2022/06/14 03:47:45;;;;;;;6.00;1.83;;;;;;;;;;5053423;28;20455;-58
2022/06/14 03:50:15;;;;;;;3.90;1.53;;;;;;;;;;5053339;28;20444;-58
2022/06/14 03:52:53;;;;;;;3.47;1.83;;;;;;;;;;5053316;28;20440;-58
2022/06/14 03:55:26;;;;;;;6.17;1.80;;;;;;;;;;5053424;28;20423;-55
2022/06/14 03:57:58;;;;;;;4.10;1.83;;;;;;;;;;5053273;28;20579;-58
2022/06/14 04:00:33;;;;;;;4.40;1.40;;;;;;;;;;5053153;28;20955;-58
2022/06/14 04:03:15;;;;;;;2.80;1.90;;;;;;;;;;5053360;28;20454;-59
2022/06/14 04:05:48;;;;;;;5.63;1.73;;;;;;;;;;5053243;28;20448;-57
2022/06/14 04:08:20;;;;;;;5.43;2.10;;;;;;;;;;5053195;28;20449;-57
2022/06/14 04:10:51;;;;;;;4.50;2.00;;;;;;;;;;5053030;28;20623;-53
2022/06/14 04:13:25;;;;;;;6.67;1.70;;;;;;;;;;5053214;28;20774;-58
2022/06/14 04:15:54;;;;;;;4.77;1.93;;;;;;;;;;5053166;28;20526;-56
2022/06/14 04:18:38;;;;;;;3.50;1.70;;;;;;;;;;5052976;28;20810;-57
2022/06/14 04:21:09;;;;;;;4.83;3.00;;;;;;;;;;5052962;28;20555;-57
2022/06/14 04:23:38;;;;;;;3.93;1.50;;;;;;;;;;5052837;28;20459;-57
2022/06/14 04:26:08;;;;;;;4.33;1.67;;;;;;;;;;5053028;28;20456;-58
2022/06/14 04:28:39;;;;;;;3.90;1.47;;;;;;;;;;5052899;28;20455;-56
2022/06/14 04:31:08;;;;;;;5.53;2.00;;;;;;;;;;5052782;28;20452;-57
2022/06/14 04:33:39;;;;;;;4.20;1.70;;;;;;;;;;5052674;28;20940;-57
2022/06/14 04:36:08;;;;;;;2.53;1.70;;;;;;;;;;5052668;28;20452;-56
2022/06/14 04:38:37;;;;;;;4.73;1.93;;;;;;;;;;5052825;28;20498;-58
2022/06/14 04:41:07;;;;;;;4.83;1.90;;;;;;;;;;5052641;28;20452;-59
2022/06/14 04:43:38;;;;;;;4.30;1.87;;;;;;;;;;5052511;28;20499;-58
2022/06/14 04:46:07;;;;;;;5.17;1.70;;;;;;;;;;5052739;28;20452;-57
2022/06/14 04:48:36;;;;;;;3.57;1.60;;;;;;;;;;5052495;28;20450;-57
2022/06/14 04:51:06;;;;;;;5.17;1.50;;;;;;;;;;5052691;28;20455;-55
2022/06/14 04:53:36;;;;;;;7.23;2.40;;;;;;;;;;5052689;28;20788;-57
2022/06/14 04:56:05;;;;;;;5.67;2.10;;;;;;;;;;5052506;28;20759;-56
2022/06/14 04:58:37;;;;;;;7.07;2.20;;;;;;;;;;5052436;28;20476;-58
2022/06/14 05:01:08;;;;;;;4.23;1.60;;;;;;;;;;5052442;28;20445;-58
2022/06/14 05:03:38;;;;;;;4.00;1.60;;;;;;;;;;5053600;28;20480;-56
2022/06/14 05:06:09;;;;;;;4.27;1.90;;;;;;;;;;5056393;28;20932;-57
2022/06/14 05:08:38;;;;;;;5.37;1.77;;;;;;;;;;5056318;28;20455;-58
2022/06/14 05:11:09;;;;;;;8.73;1.80;;;;;;;;;;5056384;28;20444;-57
2022/06/14 05:13:40;;;;;;;6.93;2.50;;;;;;;;;;5056159;28;20427;-58
2022/06/14 05:16:08;;;;;;;5.27;1.87;;;;;;;;;;5056419;28;20502;-58
2022/06/14 05:18:37;;;;;;;6.30;1.70;;;;;;;;;;5056181;28;20483;-57
2022/06/14 05:21:06;;;;;;;7.63;2.17;;;;;;;;;;5056330;28;20943;-57
2022/06/14 05:23:37;;;;;;;7.80;1.87;;;;;;;;;;5055993;28;20456;-58
2022/06/14 05:26:11;;;;;;;2.47;1.40;;;;;;;;;;5055976;28;20452;-57
2022/06/14 05:28:40;;;;;;;6.80;2.10;;;;;;;;;;5055788;28;20971;-57
2022/06/14 05:31:13;;;;;;;3.73;1.63;;;;;;;;;;5055697;28;20444;-57
2022/06/14 05:33:53;;;;;;;2.00;1.60;;;;;;;;;;5055594;28;20514;-56
2022/06/14 05:36:23;;;;;;;3.57;1.80;;;;;;;;;;5055472;28;20444;-57
2022/06/14 05:38:55;;;;;;;7.17;1.87;;;;;;;;;;5055887;28;20487;-58
2022/06/14 05:41:25;;;;;;;3.83;1.20;;;;;;;;;;5055767;28;20452;-57
2022/06/14 05:43:53;;;;;;;5.93;1.93;;;;;;;;;;5055442;28;20563;-58
2022/06/14 05:46:25;;;;;;;3.60;1.63;;;;;;;;;;5055609;28;20447;-57
2022/06/14 05:48:53;;;;;;;4.47;2.00;;;;;;;;;;5055472;28;20444;-56
2022/06/14 05:51:22;;;;;;;4.17;1.87;;;;;;;;;;5055591;28;20444;-56
2022/06/14 05:53:51;;;;;;;5.13;1.80;;;;;;;;;;5055575;28;20451;-57
2022/06/14 05:56:22;;;;;;;3.43;1.50;;;;;;;;;;5055368;28;20426;-57
2022/06/14 05:58:53;;;;;;;5.30;1.90;;;;;;;;;;5055413;28;20533;-57
2022/06/14 06:01:23;;;;;;;4.47;2.20;;;;;;;;;;5055193;28;20460;-57
2022/06/14 06:03:53;;;;;;;4.50;1.87;;;;;;;;;;5055227;28;20936;-57
2022/06/14 06:06:21;;;;;;;5.47;1.67;;;;;;;;;;5055452;28;20450;-56
2022/06/14 06:08:50;;;;;;;4.63;1.63;;;;;;;;;;5055013;28;20431;-56
2022/06/14 06:11:19;;;;;;;5.17;1.83;;;;;;;;;;5055466;28;20535;-55
2022/06/14 06:13:50;;;;;;;5.67;2.53;;;;;;;;;;5054997;28;20452;-55
2022/06/14 06:16:20;;;;;;;3.17;1.70;;;;;;;;;;5055018;28;20805;-56
2022/06/14 06:18:49;;;;;;;6.37;1.80;;;;;;;;;;5055018;28;20911;-57
2022/06/14 06:21:20;;;;;;;6.30;1.87;;;;;;;;;;5055068;28;20948;-56
2022/06/14 06:23:50;;;;;;;5.87;1.83;;;;;;;;;;5054797;28;20539;-57
2022/06/14 06:26:19;;;;;;;7.40;1.63;;;;;;;;;;5054970;28;20539;-55
2022/06/14 06:28:50;;;;;;;4.70;1.97;;;;;;;;;;5054606;28;20853;-56
2022/06/14 06:31:19;;;;;;;8.53;2.20;;;;;;;;;;5055079;28;20429;-56
2022/06/14 06:33:48;;;;;;;11.33;2.07;;;;;;;;;;5054811;28;20834;-58
2022/06/14 06:36:22;;;;;;;6.70;1.93;;;;;;;;;;5054587;28;20806;-57
2022/06/14 06:38:55;;;;;;;3.20;1.40;;;;;;;;;;5054471;28;20510;-56
2022/06/14 06:44:14;;;;;;;6.63;2.00;;;;;;;;;;5054570;28;20534;-57
2022/06/14 06:46:46;;;;;;;4.70;2.17;;;;;;;;;;5054503;28;20449;-57
2022/06/14 06:49:14;;;;;;;9.67;1.60;;;;;;;;;;5054450;28;20448;-57
2022/06/14 06:51:44;;;;;;;3.23;1.40;;;;;;;;;;5054298;28;20463;-56
2022/06/14 06:54:14;;;;;;;3.23;1.33;;;;;;;;;;5054444;28;20831;-56
2022/06/14 06:56:44;;;;;;;3.50;1.67;;;;;;;;;;5054256;28;20444;-56
2022/06/14 06:59:18;;;;;;;4.77;1.93;;;;;;;;;;5054271;28;20486;-57
2022/06/14 07:01:46;;;;;;;3.83;1.67;;;;;;;;;;5054121;28;20452;-56
2022/06/14 07:04:17;;;;;;;3.90;1.87;;;;;;;;;;5054385;28;20855;-57
2022/06/14 07:06:45;;;;;;;2.27;1.30;;;;;;;;;;5054300;28;20448;-57
2022/06/14 07:09:16;;;;;;;5.67;1.57;;;;;;;;;;5053824;28;20448;-57
2022/06/14 07:11:45;;;;;;;4.23;1.60;;;;;;;;;;5053983;28;20539;-57
2022/06/14 07:14:16;;;;;;;5.53;2.30;;;;;;;;;;5054097;28;20454;-56
2022/06/14 07:16:47;;;;;;;5.97;2.13;;;;;;;;;;5053606;28;20547;-57
2022/06/14 07:19:19;;;;;;;5.70;1.63;;;;;;;;;;5053932;28;20926;-56
2022/06/14 07:21:49;;;;;;;6.87;1.90;;;;;;;;;;5053916;28;20452;-55
2022/06/14 07:24:18;;;;;;;4.50;1.60;;;;;;;;;;5053683;28;20487;-58
2022/06/14 07:26:47;;;;;;;5.90;1.70;;;;;;;;;;5053080;28;20754;-56
2022/06/14 07:29:17;;;;;;;6.20;1.80;;;;;;;;;;5053690;28;20524;-59
2022/06/14 07:31:46;;;;;;;6.80;1.43;;;;;;;;;;5053714;28;20453;-58
2022/06/14 07:34:13;;;;;;;4.97;1.40;;;;;;;;;;5053579;28;20452;-58
2022/06/14 07:36:46;;;;;;;7.20;1.53;;;;;;;;;;5053500;28;20535;-56
2022/06/14 07:39:15;;;;;;;3.60;1.57;;;;;;;;;;5053292;28;20482;-57
2022/06/14 07:41:45;;;;;;;6.23;1.50;;;;;;;;;;5053388;28;20962;-57
2022/06/14 07:44:16;;;;;;;5.30;1.83;;;;;;;;;;5053199;28;20480;-56
2022/06/14 07:46:49;;;;;;;4.40;1.97;;;;;;;;;;5053491;28;20459;-57
2022/06/14 07:49:20;;;;;;;4.60;1.73;;;;;;;;;;5053380;28;20452;-58
2022/06/14 07:51:49;;;;;;;6.73;2.10;;;;;;;;;;5053216;28;20467;-57
2022/06/14 07:54:21;;;;;;;7.77;2.40;;;;;;;;;;5053424;28;20861;-58
2022/06/14 07:56:50;;;;;;;5.70;1.40;;;;;;;;;;5053201;28;20969;-52
2022/06/14 07:59:19;;;;;;;4.13;1.80;;;;;;;;;;5052756;28;20983;-58
2022/06/14 08:01:51;;;;;;;6.00;2.13;;;;;;;;;;5053015;28;20773;-58
2022/06/14 08:04:20;;;;;;;5.83;2.10;;;;;;;;;;5052783;28;20453;-58
2022/06/14 08:06:48;;;;;;;7.67;1.97;;;;;;;;;;5053112;28;20444;-59
2022/06/14 08:09:17;;;;;;;4.43;1.90;;;;;;;;;;5053018;28;20451;-58
2022/06/14 08:11:46;;;;;;;6.70;1.63;;;;;;;;;;5052931;28;20807;-58
2022/06/14 08:14:16;;;;;;;5.90;1.93;;;;;;;;;;5052863;28;20450;-58
2022/06/14 08:16:44;;;;;;;5.67;1.60;;;;;;;;;;5052728;28;20488;-58
2022/06/14 08:19:15;;;;;;;6.60;1.60;;;;;;;;;;5052932;28;20490;-57
2022/06/14 08:21:44;;;;;;;8.10;2.40;;;;;;;;;;5052902;28;20459;-58
2022/06/14 08:24:13;;;;;;;4.47;1.40;;;;;;;;;;5052774;28;20440;-54
2022/06/14 08:26:42;;;;;;;5.40;1.53;;;;;;;;;;5052752;28;20479;-55
2022/06/14 08:29:13;;;;;;;3.20;1.23;;;;;;;;;;5052930;28;20958;-58
2022/06/14 08:31:42;;;;;;;4.87;1.57;;;;;;;;;;5052732;28;20475;-56
2022/06/14 08:34:15;;;;;;;4.13;1.47;;;;;;;;;;5052968;28;20444;-58
2022/06/14 08:36:46;;;;;;;3.10;1.60;;;;;;;;;;5052801;28;20448;-55
2022/06/14 08:39:15;;;;;;;4.10;2.00;;;;;;;;;;5054365;28;20472;-54
2022/06/14 08:41:48;;;;;;;5.23;1.70;;;;;;;;;;5056645;28;20552;-58
2022/06/14 08:44:18;;;;;;;6.43;2.23;;;;;;;;;;5056781;28;20472;-59
2022/06/14 08:46:54;;;;;;;4.40;1.40;;;;;;;;;;5057054;28;20542;-58
2022/06/14 08:49:34;;;;;;;7.20;2.27;;;;;;;;;;5056732;28;20514;-58
2022/06/14 08:52:11;;;;;;;9.47;1.77;;;;;;;;;;5056827;28;20459;-58
2022/06/14 08:54:47;;;;;;;6.20;2.50;;;;;;;;;;5056835;28;20444;-55
2022/06/14 08:57:23;;;;;;;2.30;1.77;;;;;;;;;;5056750;28;20452;-59
2022/06/14 09:00:05;;;;;;;4.17;1.90;;;;;;;;;;5056597;28;20878;-58
2022/06/14 09:02:44;;;;;;;4.47;1.40;;;;;;;;;;5056309;28;20463;-59
2022/06/14 09:05:31;;;;;;;3.67;1.37;;;;;;;;;;5056643;28;21022;-60
2022/06/14 09:08:18;;;;;;;3.50;1.30;;;;;;;;;;5056283;28;20528;-58
2022/06/14 09:10:54;;;;;;;2.33;1.63;;;;;;;;;;5056522;28;20452;-58
2022/06/14 09:13:29;;;;;;;3.47;1.77;;;;;;;;;;5056385;28;20447;-59
2022/06/14 09:16:06;;;;;;;6.40;1.57;;;;;;;;;;5056208;28;20838;-59
2022/06/14 09:18:40;;;;;;;3.87;1.30;;;;;;;;;;5056177;28;20458;-58
2022/06/14 09:21:24;;;;;;;5.70;1.93;;;;;;;;;;5055980;28;20802;-59
2022/06/14 09:23:58;;;;;;;2.53;1.43;;;;;;;;;;5056052;28;20448;-60
2022/06/14 09:26:30;;;;;;;3.30;1.30;;;;;;;;;;5056158;28;20453;-59
2022/06/14 09:29:15;;;;;;;3.90;2.13;;;;;;;;;;5055950;28;20452;-57
2022/06/14 09:31:49;;;;;;;3.83;1.50;;;;;;;;;;5055670;28;20978;-58
2022/06/14 09:34:36;;;;;;;7.03;1.40;;;;;;;;;;5056012;28;20454;-58
2022/06/14 09:37:19;;;;;;;2.43;1.40;;;;;;;;;;5055733;28;20444;-59
2022/06/14 09:39:57;;;;;;;2.80;1.40;;;;;;;;;;5055699;28;20479;-59
2022/06/14 09:42:43;;;;;;;4.53;1.50;;;;;;;;;;5055692;28;20631;-59
2022/06/14 09:45:33;;;;;;;3.50;1.40;;;;;;;;;;5055865;28;20448;-58
2022/06/14 09:48:19;;;;;;;2.20;1.33;;;;;;;;;;5055734;28;20944;-58
2022/06/14 09:50:50;;;;;;;3.77;1.20;;;;;;;;;;5054959;28;20452;-58
2022/06/14 09:53:35;;;;;;;4.07;1.20;;;;;;;;;;5055565;28;20535;-58
2022/06/14 09:56:13;;;;;;;2.17;1.00;;;;;;;;;;5055410;28;20880;-56
2022/06/14 09:59:04;;;;;;;2.23;1.20;;;;;;;;;;5055325;28;20452;-55
2022/06/14 10:01:35;;;;;;;1.70;1.00;;;;;;;;;;5055463;28;20453;-55
2022/06/14 10:04:15;;;;;;;5.77;1.50;;;;;;;;;;5055173;28;20455;-51
2022/06/14 10:06:49;;;;;;;4.30;1.47;;;;;;;;;;5055215;28;20939;-55
2022/06/14 10:09:34;;;;;;;3.43;1.27;;;;;;;;;;5055185;28;20887;-55
2022/06/14 10:12:11;;;;;;;4.53;1.70;;;;;;;;;;5055292;28;20472;-55
2022/06/14 10:14:44;;;;;;;3.07;1.53;;;;;;;;;;5055425;28;20447;-56
2022/06/14 10:17:30;;;;;;;5.33;1.60;;;;;;;;;;5054997;28;20450;-56
2022/06/14 10:20:10;;;;;;;12.60;8.63;;;;;;;;;;5055172;28;20468;-57
2022/06/14 10:22:42;;;;;;;3.20;1.67;;;;;;;;;;5055146;28;20551;-57
2022/06/14 10:25:12;;;;;;;5.53;1.57;;;;;;;;;;5054727;28;20451;-57
2022/06/14 10:30:40;;;;;;;6.00;1.70;;;;;;;;;;5054837;28;20447;-59
2022/06/14 10:33:42;;;;;;;3.30;1.30;;;;;;;;;;5054811;28;20815;-59
2022/06/14 10:36:17;;;;;;;4.90;1.33;;;;;;;;;;5032716;28;20448;-57
2022/06/14 10:38:58;;;;;;;3.10;1.27;;;;;;;;;;5032647;28;20527;-56
2022/06/14 10:41:27;;;;;;;5.93;1.50;;;;;;;;;;5045541;28;20532;-56
2022/06/14 10:43:58;;;;;;;4.60;1.30;;;;;;;;;;5052646;28;20476;-58
2022/06/14 10:46:28;;;;;;;4.40;1.90;;;;;;;;;;5047400;28;20452;-59
2022/06/14 10:49:12;;;;;;;2.80;1.83;;;;;;;;;;5034099;28;20990;-58
2022/06/14 10:51:46;;;;;;;5.83;1.50;;;;;;;;;;5044709;28;20807;-54
2022/06/14 10:54:17;;;;;;;2.83;1.13;;;;;;;;;;5054197;28;20539;-55
2022/06/14 10:57:07;;;;;;;1.93;1.37;;;;;;;;;;5054036;28;20480;-54
2022/06/14 10:59:55;;;;;;;2.80;1.30;;;;;;;;;;5054125;28;20476;-55
2022/06/14 11:02:28;;;;;;;3.47;1.77;;;;;;;;;;5053382;28;20455;-57
2022/06/14 11:04:59;;;;;;;3.40;1.40;;;;;;;;;;5053383;28;20551;-56
2022/06/14 11:07:51;;;;;;;3.30;1.50;;;;;;;;;;5054862;28;20819;-57
2022/06/14 11:10:32;;;;;;;3.13;1.70;;;;;;;;;;5054177;28;20532;-57
2022/06/14 11:13:03;;;;;;;6.00;1.33;;;;;;;;;;5054011;28;20531;-53
2022/06/14 11:15:34;;;;;;;2.40;1.40;;;;;;;;;;5051337;28;20452;-57
2022/06/14 11:18:10;;;;;;;5.73;1.27;;;;;;;;;;5053811;28;20453;-54
2022/06/14 11:20:43;;;;;;;4.50;1.67;;;;;;;;;;5054136;28;20583;-58
2022/06/14 11:23:13;;;;;;;4.70;1.53;;;;;;;;;;5052771;28;20464;-53
2022/06/14 11:25:44;;;;;;;3.33;1.47;;;;;;;;;;5053673;28;20472;-54
2022/06/14 11:28:16;;;;;;;4.83;1.50;;;;;;;;;;5052382;28;20463;-56
2022/06/14 11:30:48;;;;;;;5.40;1.60;;;;;;;;;;5035879;28;20466;-54
2022/06/14 11:33:21;;;;;;;3.10;1.47;;;;;;;;;;5053691;28;20535;-55
2022/06/14 11:35:55;;;;;;;2.80;1.30;;;;;;;;;;5053670;28;20865;-53
2022/06/14 11:38:28;;;;;;;2.70;1.40;;;;;;;;;;5053869;28;20547;-57
2022/06/14 11:40:58;;;;;;;3.00;1.83;;;;;;;;;;5034686;28;20925;-56
2022/06/14 11:43:34;;;;;;;1.83;1.20;;;;;;;;;;5045211;28;20566;-53
2022/06/14 11:46:04;;;;;;;5.10;1.50;;;;;;;;;;5053475;28;20882;-55
2022/06/14 11:48:34;;;;;;;2.70;1.10;;;;;;;;;;5053266;28;20869;-55
2022/06/14 11:51:02;;;;;;;3.63;1.60;;;;;;;;;;5051720;28;20539;-58
2022/06/14 11:53:41;;;;;;;1.90;1.07;;;;;;;;;;5046567;28;20456;-55
2022/06/14 11:56:12;;;;;;;4.73;1.50;;;;;;;;;;5047877;28;20544;-55
2022/06/14 11:58:47;;;;;;;5.30;1.60;;;;;;;;;;5055245;28;20451;-57
2022/06/14 12:01:19;;;;;;;2.13;1.17;;;;;;;;;;5054848;28;20591;-58
2022/06/14 12:03:57;;;;;;;4.10;1.27;;;;;;;;;;5050874;28;20947;-57
2022/06/14 12:06:28;;;;;;;2.83;1.20;;;;;;;;;;5053199;28;20522;-56
2022/06/14 12:09:03;;;;;;;6.53;1.60;;;;;;;;;;5051899;28;20458;-56
2022/06/14 12:11:34;;;;;;;4.07;1.33;;;;;;;;;;5036033;28;20484;-49
2022/06/14 12:14:17;;;;;;;3.83;1.50;;;;;;;;;;5039404;28;21018;-55
2022/06/14 12:16:48;;;;;;;5.07;1.53;;;;;;;;;;5047101;28;20843;-55
2022/06/14 12:19:20;;;;;;;3.53;1.20;;;;;;;;;;5053004;28;20531;-55
2022/06/14 12:21:51;;;;;;;2.50;1.20;;;;;;;;;;5052605;28;20566;-53
2022/06/14 12:24:21;;;;;;;2.27;1.30;;;;;;;;;;5051522;28;20452;-55
2022/06/14 12:26:49;;;;;;;4.03;1.60;;;;;;;;;;5052711;28;20490;-51
2022/06/14 12:29:18;;;;;;;3.93;1.10;;;;;;;;;;5052751;28;20952;-55
2022/06/14 12:31:55;;;;;;;5.40;1.60;;;;;;;;;;5052782;28;20460;-55
2022/06/14 12:34:25;;;;;;;2.20;1.20;;;;;;;;;;5035752;28;20457;-53
2022/06/14 12:36:58;;;;;;;4.10;1.40;;;;;;;;;;5049690;28;20566;-55
2022/06/14 12:39:28;;;;;;;3.33;1.83;;;;;;;;;;5052374;28;20448;-52
2022/06/14 12:41:59;;;;;;;1.37;1.00;;;;;;;;;;5051599;28;20476;-55
2022/06/14 12:44:30;;;;;;;2.13;1.20;;;;;;;;;;5051769;28;20495;-53
2022/06/14 12:47:01;;;;;;;4.23;1.60;;;;;;;;;;5052307;28;20803;-51
2022/06/14 12:49:31;;;;;;;2.13;1.20;;;;;;;;;;5056627;28;20838;-53
2022/06/14 12:51:59;;;;;;;2.53;1.20;;;;;;;;;;5051694;28;20456;-48
2022/06/14 12:54:31;;;;;;;2.40;1.27;;;;;;;;;;5047529;28;20898;-48
2022/06/14 12:57:00;;;;;;;1.90;1.03;;;;;;;;;;5052601;28;21043;-49
2022/06/14 12:59:30;;;;;;;5.70;1.53;;;;;;;;;;5052543;28;20448;-49
2022/06/14 13:02:06;;;;;;;3.17;1.20;;;;;;;;;;5052372;28;20480;-49
2022/06/14 13:04:35;;;;;;;3.50;1.00;;;;;;;;;;5052799;28;20479;-50
2022/06/14 13:07:08;;;;;;;3.00;1.50;;;;;;;;;;5052677;28;20452;-50
2022/06/14 13:09:40;;;;;;;5.23;1.10;;;;;;;;;;5052435;28;20449;-52
2022/06/14 13:12:13;;;;;;;5.80;1.20;;;;;;;;;;5052401;28;20456;-52
2022/06/14 13:14:43;;;;;;;1.87;1.30;;;;;;;;;;5052110;28;20452;-51
2022/06/14 13:17:17;;;;;;;3.37;1.50;;;;;;;;;;5052224;28;20451;-53
2022/06/14 13:19:48;;;;;;;1.83;1.40;;;;;;;;;;5052511;28;20912;-53
2022/06/14 13:22:39;;;;;;;3.30;1.23;;;;;;;;;;5052527;28;20527;-54
2022/06/14 13:25:20;;;;;;;2.53;1.03;;;;;;;;;;5054165;28;20440;-55
2022/06/14 13:27:51;;;;;;;4.47;1.40;;;;;;;;;;5033676;28;20454;-53
2022/06/14 13:30:20;;;;;;;3.00;1.40;;;;;;;;;;5056005;28;20530;-55
2022/06/14 13:33:05;;;;;;;2.60;1.23;;;;;;;;;;5055839;28;20559;-53
2022/06/14 13:35:37;;;;;;;2.17;1.37;;;;;;;;;;5055713;28;20495;-53
2022/06/14 13:38:06;;;;;;;3.53;1.20;;;;;;;;;;5055816;28;20543;-54
2022/06/14 13:40:37;;;;;;;4.30;1.50;;;;;;;;;;5055953;28;20827;-51
2022/06/14 13:43:10;;;;;;;2.97;1.27;;;;;;;;;;5055503;28;20566;-52
2022/06/14 13:45:40;;;;;;;2.70;1.07;;;;;;;;;;5055938;28;20452;-54
2022/06/14 13:48:14;;;;;;;4.17;1.53;;;;;;;;;;5055479;28;20966;-54
2022/06/14 13:50:44;;;;;;;3.57;1.20;;;;;;;;;;5055648;28;20458;-54
2022/06/14 13:53:15;;;;;;;3.77;1.47;;;;;;;;;;5055627;28;20448;-53
2022/06/14 13:55:44;;;;;;;3.40;1.20;;;;;;;;;;5055516;28;20456;-52
2022/06/14 13:58:14;;;;;;;4.90;1.40;;;;;;;;;;5055331;28;20536;-53
2022/06/14 14:00:44;;;;;;;4.63;1.30;;;;;;;;;;5055259;28;20578;-53
2022/06/14 14:03:31;;;;;;;5.40;1.63;;;;;;;;;;5055459;28;20449;-50
2022/06/14 14:06:01;;;;;;;4.43;1.10;;;;;;;;;;5055292;28;20448;-54
2022/06/14 14:08:35;;;;;;;2.33;1.27;;;;;;;;;;5055173;28;20483;-53
2022/06/14 14:11:07;;;;;;;2.37;1.20;;;;;;;;;;5054989;28;20540;-49
2022/06/14 14:13:37;;;;;;;5.87;1.57;;;;;;;;;;5055330;28;20470;-53
2022/06/14 14:16:07;;;;;;;4.40;1.50;;;;;;;;;;5055472;28;20448;-54
2022/06/14 14:18:43;;;;;;;1.47;1.10;;;;;;;;;;5055057;28;20539;-52
2022/06/14 14:21:13;;;;;;;3.73;1.20;;;;;;;;;;5054831;28;20911;-51
2022/06/14 14:23:47;;;;;;;1.57;1.13;;;;;;;;;;5054839;28;20933;-50
2022/06/14 14:26:17;;;;;;;3.03;1.60;;;;;;;;;;5055227;28;20531;-56
2022/06/14 14:28:48;;;;;;;3.13;1.23;;;;;;;;;;5054883;28;20566;-51
2022/06/14 14:31:22;;;;;;;2.60;1.33;;;;;;;;;;5054686;28;20487;-53
2022/06/14 14:33:53;;;;;;;3.13;1.30;;;;;;;;;;5054653;28;20456;-54
2022/06/14 14:36:34;;;;;;;2.63;1.37;;;;;;;;;;5053630;28;20455;-52
2022/06/14 14:39:02;;;;;;;2.60;1.00;;;;;;;;;;5054721;28;20444;-54
2022/06/14 14:41:34;;;;;;;4.70;1.70;;;;;;;;;;5054516;28;20923;-52
2022/06/14 14:44:03;;;;;;;2.97;1.13;;;;;;;;;;5054556;28;20855;-53
2022/06/14 14:46:32;;;;;;;3.90;1.70;;;;;;;;;;5054642;28;20448;-49
2022/06/14 14:49:04;;;;;;;6.93;1.40;;;;;;;;;;5054642;28;20454;-53
2022/06/14 14:51:38;;;;;;;1.97;1.10;;;;;;;;;;5054616;28;20478;-53
2022/06/14 14:54:08;;;;;;;1.20;1.10;;;;;;;;;;5054499;28;20455;-52
2022/06/14 14:56:39;;;;;;;6.27;2.60;;;;;;;;;;5054358;28;20448;-49
2022/06/14 14:59:13;;;;;;;2.83;1.40;;;;;;;;;;5054293;28;20448;-51
2022/06/14 15:07:22;;;;;;;1.97;1.30;;;;;;;;;;5054024;28;20459;-51
2022/06/14 15:09:52;;;;;;;3.87;1.10;;;;;;;;;;5054275;28;20591;-55
2022/06/14 15:12:20;;;;;;;2.67;1.10;;;;;;;;;;5054438;28;20535;-51
2022/06/14 15:15:07;;;;;;;3.77;1.00;;;;;;;;;;5053801;28;21061;-53
2022/06/14 15:19:54;;;;;;;1.63;1.00;;;;;;;;;;5054297;28;20995;-53
2022/06/14 15:20:31;;;;;;;2.90;1.10;;;;;;;;;;5053775;28;20448;-51
2022/06/14 15:22:59;;;;;;;2.23;1.00;;;;;;;;;;5053930;28;20460;-53
2022/06/14 15:25:27;;;;;;;4.07;1.30;;;;;;;;;;5053841;28;20448;-55
2022/06/14 15:27:59;;;;;;;2.10;1.00;;;;;;;;;;5053931;28;20448;-55